| time (UTC) | temp F | wind direction | speed MPH | gust MPH | rain 1hr in | rain 24hr in | rain mn in | humidity % | barometer mb |
| 20260507191515 | 59 | 111 | 3.0 | 10.0 | 0.00 | 0.00 | 0.00 | 78 | 1013.3 |
| 20260507190015 | 59 | 136 | 5.0 | 11.0 | 0.00 | 0.00 | 0.00 | 76 | 1013.2 |
| 20260507184514 | 59 | 109 | 6.0 | 11.0 | 0.00 | 0.00 | 0.00 | 79 | 1013.2 |
| 20260507183033 | 59 | 84 | 4.0 | 9.0 | 0.00 | 0.00 | 0.00 | 84 | 1013.2 |
| 20260507181513 | 59 | 109 | 3.0 | 7.0 | 0.00 | 0.00 | 0.00 | 85 | 1013.2 |
| 20260507180012 | 60 | 86 | 4.0 | 7.0 | 0.00 | 0.00 | 0.00 | 84 | 1012.9 |
| 20260507174515 | 61 | 86 | 3.0 | 7.0 | 0.00 | 0.00 | 0.00 | 82 | 1012.7 |
| 20260507173010 | 62 | 112 | 1.0 | 7.0 | 0.00 | 0.00 | 0.00 | 79 | 1012.6 |
| 20260507171510 | 63 | 117 | 1.0 | 6.0 | 0.00 | 0.00 | 0.00 | 75 | 1012.7 |
| 20260507170009 | 65 | 35 | 1.0 | 4.0 | 0.00 | 0.00 | 0.00 | 71 | 1012.7 |
| 20260507164509 | 65 | 126 | 0.0 | 4.0 | 0.00 | 0.00 | 0.00 | 69 | 1012.6 |
| 20260507163007 | 65 | 66 | 1.0 | 4.0 | 0.00 | 0.00 | 0.00 | 68 | 1012.6 |
| 20260507161508 | 65 | 134 | 2.0 | 7.0 | 0.00 | 0.00 | 0.00 | 67 | 1012.7 |
| 20260507160017 | 64 | 104 | 1.0 | 9.0 | 0.00 | 0.00 | 0.00 | 67 | 1012.7 |
| 20260507154507 | 65 | 315 | 1.0 | 6.0 | 0.00 | 0.00 | 0.00 | 64 | 1012.7 |
| 20260507153006 | 66 | 19 | 1.0 | 6.0 | 0.00 | 0.00 | 0.00 | 61 | 1012.6 |
| 20260507151505 | 65 | 115 | 2.0 | 8.0 | 0.00 | 0.00 | 0.00 | 64 | 1012.7 |
| 20260507150006 | 66 | 64 | 3.0 | 7.0 | 0.00 | 0.00 | 0.00 | 61 | 1012.7 |
| 20260507144505 | 67 | 313 | 1.0 | 6.0 | 0.00 | 0.00 | 0.00 | 61 | 1012.7 |
| 20260507143007 | 67 | 90 | 3.0 | 6.0 | 0.00 | 0.00 | 0.00 | 60 | 1012.7 |
| 20260507141513 | 67 | 63 | 1.0 | 4.0 | 0.00 | 0.00 | 0.00 | 62 | 1012.7 |
| 20260507140006 | 66 | 71 | 4.0 | 10.0 | 0.00 | 0.00 | 0.00 | 64 | 1012.7 |
| 20260507134503 | 66 | 28 | 2.0 | 9.0 | 0.00 | 0.00 | 0.00 | 63 | 1012.7 |
| 20260507133003 | 68 | 33 | 2.0 | 6.0 | 0.00 | 0.00 | 0.00 | 61 | 1012.8 |
| 20260507131502 | 67 | 71 | 1.0 | 8.0 | 0.00 | 0.00 | 0.00 | 60 | 1012.9 |
| 20260507130001 | 67 | 46 | 2.0 | 7.0 | 0.00 | 0.00 | 0.00 | 60 | 1012.9 |
| 20260507124503 | 68 | 209 | 1.0 | 7.0 | 0.00 | 0.00 | 0.00 | 59 | 1012.8 |
| 20260507123103 | 68 | 123 | 1.0 | 4.0 | 0.00 | 0.00 | 0.00 | 58 | 1012.9 |
| 20260507121558 | 66 | 360 | 2.0 | 9.0 | 0.00 | 0.00 | 0.00 | 60 | 1013.0 |
| 20260507120058 | 67 | 130 | 2.0 | 8.0 | 0.00 | 0.00 | 0.00 | 59 | 1013.1 |
| 20260507114612 | 66 | 94 | 2.0 | 6.0 | 0.00 | 0.00 | 0.00 | 60 | 1013.2 |
| 20260507113058 | 66 | 155 | 1.0 | 9.0 | 0.00 | 0.00 | 0.00 | 59 | 1013.2 |
| 20260507111556 | 66 | 22 | 4.0 | 11.0 | 0.00 | 0.00 | 0.00 | 59 | 1013.2 |
| 20260507110057 | 66 | 49 | 1.0 | 7.0 | 0.00 | 0.00 | 0.00 | 58 | 1013.4 |
| 20260507104558 | 65 | 26 | 1.0 | 5.0 | 0.00 | 0.00 | 0.00 | 61 | 1013.5 |
| 20260507103055 | 66 | 254 | 2.0 | 10.0 | 0.00 | 0.00 | 0.00 | 53 | 1013.5 |
| 20260507101557 | 66 | 294 | 1.0 | 11.0 | 0.00 | 0.00 | 0.00 | 44 | 1013.4 |
| 20260507100054 | 67 | 305 | 1.0 | 8.0 | 0.00 | 0.00 | 0.00 | 42 | 1013.4 |
| 20260507094546 | 66 | 306 | 4.0 | 12.0 | 0.00 | 0.00 | 0.00 | 43 | 1013.4 |
| 20260507093044 | 65 | 259 | 5.0 | 16.0 | 0.00 | 0.00 | 0.00 | 46 | 1013.3 |
| 20260507091544 | 65 | 230 | 6.0 | 11.0 | 0.00 | 0.00 | 0.00 | 42 | 1013.3 |
| 20260507090040 | 64 | 235 | 4.0 | 17.0 | 0.00 | 0.00 | 0.00 | 41 | 1013.3 |
| 20260507084538 | 65 | 279 | 7.0 | 14.0 | 0.00 | 0.00 | 0.00 | 46 | 1013.3 |
| 20260507083034 | 63 | 254 | 6.0 | 11.0 | 0.00 | 0.00 | 0.00 | 49 | 1013.2 |
| 20260507081531 | 63 | 204 | 5.0 | 10.0 | 0.00 | 0.00 | 0.00 | 54 | 1013.0 |
| 20260507080030 | 62 | 39 | 2.0 | 11.0 | 0.00 | 0.00 | 0.00 | 57 | 1012.9 |
| 20260507074530 | 63 | 222 | 6.0 | 11.0 | 0.00 | 0.00 | 0.00 | 56 | 1012.8 |
| 20260507073029 | 63 | 223 | 0.0 | 6.0 | 0.00 | 0.00 | 0.00 | 58 | 1012.8 |
| 20260507071523 | 61 | 215 | 0.0 | 9.0 | 0.00 | 0.00 | 0.00 | 61 | 1012.8 |
| 20260507070019 | 60 | 236 | 2.0 | 7.0 | 0.00 | 0.00 | 0.00 | 63 | 1013.1 |
| 20260507064516 | 59 | 263 | 2.0 | 6.0 | 0.00 | 0.00 | 0.00 | 66 | 1013.1 |
| 20260507063025 | 59 | 194 | 2.0 | 6.0 | 0.00 | 0.00 | 0.00 | 67 | 1012.9 |
| 20260507061512 | 58 | 190 | 2.0 | 7.0 | 0.00 | 0.00 | 0.00 | 68 | 1013.0 |
| 20260507060024 | 57 | 185 | 4.0 | 9.0 | 0.00 | 0.00 | 0.00 | 69 | 1012.8 |
| 20260507054508 | 57 | 242 | 4.0 | 10.0 | 0.00 | 0.00 | 0.00 | 72 | 1012.7 |
| 20260507053006 | 56 | 241 | 5.0 | 8.0 | 0.00 | 0.00 | 0.00 | 75 | 1012.5 |
| 20260507051604 | 56 | 215 | 2.0 | 5.0 | 0.00 | 0.00 | 0.00 | 75 | 1012.4 |
| 20260507050101 | 57 | 240 | 2.0 | 7.0 | 0.00 | 0.00 | 0.00 | 73 | 1012.3 |
| 20260507044555 | 58 | 198 | 4.0 | 8.0 | 0.00 | 0.01 | 0.00 | 71 | 1012.1 |
| 20260507043052 | 58 | 238 | 5.0 | 11.0 | 0.00 | 0.01 | 0.00 | 70 | 1011.7 |
| 20260507041549 | 58 | 248 | 1.0 | 5.0 | 0.00 | 0.01 | 0.00 | 70 | 1011.5 |
| 20260507040048 | 58 | 196 | 0.0 | 7.0 | 0.00 | 0.01 | 0.00 | 71 | 1011.7 |
| 20260507034548 | 58 | 141 | 4.0 | 7.0 | 0.00 | 0.01 | 0.00 | 72 | 1011.5 |
| 20260507033048 | 58 | 181 | 3.0 | 11.0 | 0.00 | 0.01 | 0.00 | 72 | 1011.6 |
| 20260507031547 | 58 | 177 | 4.0 | 8.0 | 0.00 | 0.01 | 0.00 | 73 | 1011.6 |
| 20260507030045 | 58 | 246 | 7.0 | 11.0 | 0.00 | 0.01 | 0.00 | 72 | 1011.7 |
| 20260507024543 | 58 | 284 | 6.0 | 14.0 | 0.00 | 0.01 | 0.00 | 72 | 1011.4 |
| 20260507023041 | 58 | 161 | 2.0 | 10.0 | 0.00 | 0.01 | 0.00 | 75 | 1011.4 |
| 20260507021539 | 58 | 259 | 1.0 | 7.0 | 0.00 | 0.01 | 0.00 | 75 | 1011.4 |
| 20260507020043 | 59 | 254 | 3.0 | 7.0 | 0.00 | 0.01 | 0.00 | 74 | 1011.3 |
| 20260507014548 | 59 | 197 | 1.0 | 4.0 | 0.00 | 0.01 | 0.00 | 75 | 1011.4 |
| 20260507013136 | 59 | 276 | 5.0 | 11.0 | 0.00 | 0.01 | 0.00 | 75 | 1011.4 |
| 20260507011536 | 59 | 213 | 1.0 | 12.0 | 0.00 | 0.01 | 0.00 | 76 | 1011.4 |
| 20260507010045 | 59 | 183 | 1.0 | 7.0 | 0.00 | 0.01 | 0.00 | 77 | 1011.3 |
| 20260507004534 | 59 | 311 | 2.0 | 10.0 | 0.00 | 0.01 | 0.00 | 74 | 1011.5 |
| 20260507003031 | 59 | 217 | 7.0 | 14.0 | 0.00 | 0.01 | 0.00 | 74 | 1011.5 |
| 20260507001533 | 59 | 244 | 1.0 | 4.0 | 0.00 | 0.01 | 0.00 | 74 | 1011.4 |
| 20260507000027 | 59 | 292 | 6.0 | 11.0 | 0.00 | 0.01 | 0.00 | 73 | 1011.5 |
| 20260506234530 | 59 | 92 | 2.0 | 8.0 | 0.00 | 0.01 | 0.00 | 74 | 1011.5 |
| 20260506233022 | 59 | 345 | 1.0 | 8.0 | 0.00 | 0.01 | 0.00 | 74 | 1011.4 |
| 20260506231518 | 59 | 298 | 1.0 | 6.0 | 0.00 | 0.01 | 0.00 | 74 | 1011.5 |
| 20260506230014 | 59 | 276 | 5.0 | 10.0 | 0.00 | 0.01 | 0.00 | 73 | 1011.7 |
| 20260506224513 | 59 | 194 | 0.0 | 4.0 | 0.00 | 0.01 | 0.00 | 75 | 1011.9 |
| 20260506223012 | 59 | 193 | 0.0 | 5.0 | 0.00 | 0.01 | 0.00 | 75 | 1011.8 |
| 20260506221511 | 59 | 159 | 1.0 | 3.0 | 0.00 | 0.01 | 0.00 | 77 | 1012.0 |
| 20260506220017 | 59 | 159 | 0.0 | 2.0 | 0.00 | 0.01 | 0.00 | 76 | 1011.8 |
| 20260506214510 | 59 | 159 | 0.0 | 2.0 | 0.00 | 0.03 | 0.01 | 75 | 1011.8 |
| 20260506213007 | 59 | 93 | 1.0 | 4.0 | 0.00 | 0.03 | 0.01 | 74 | 1011.9 |
| 20260506211511 | 60 | 131 | 1.0 | 6.0 | 0.00 | 0.03 | 0.01 | 74 | 1011.8 |
| 20260506210012 | 60 | 42 | 0.0 | 3.0 | 0.00 | 0.03 | 0.01 | 73 | 1011.9 |
| 20260506204507 | 60 | 192 | 1.0 | 6.0 | 0.00 | 0.18 | 0.01 | 73 | 1011.8 |
| 20260506203006 | 60 | 343 | 2.0 | 6.0 | 0.00 | 0.18 | 0.01 | 74 | 1011.6 |
| 20260506201508 | 60 | 15 | 2.0 | 5.0 | 0.00 | 0.18 | 0.01 | 75 | 1011.5 |
| 20260506200010 | 60 | 315 | 3.0 | 6.0 | 0.00 | 0.18 | 0.01 | 74 | 1011.4 |
| 20260506194505 | 60 | 338 | 0.0 | 5.0 | 0.00 | 0.28 | 0.01 | 75 | 1011.3 |
| 20260506193004 | 60 | 349 | 4.0 | 7.0 | 0.00 | 0.28 | 0.01 | 75 | 1011.2 |